createdAt,value
2023-01-23T00:00:18.045Z,104021.19
2023-01-23T00:02:46.421Z,104022.53
2023-01-23T00:05:14.980Z,104017.00
2023-01-23T00:07:43.359Z,104016.72
2023-01-23T00:10:13.011Z,104016.38
2023-01-23T00:12:43.239Z,104004.41
2023-01-23T00:15:13.117Z,104016.91
2023-01-23T00:17:43.458Z,103990.94
2023-01-23T00:20:12.894Z,104001.69
2023-01-23T00:22:41.363Z,104002.22
2023-01-23T00:25:10.497Z,104007.19
2023-01-23T00:27:39.046Z,104007.19
2023-01-23T00:30:11.576Z,104002.72
2023-01-23T00:32:40.185Z,104007.06
2023-01-23T00:35:10.665Z,104000.25
2023-01-23T00:37:39.181Z,103988.97
2023-01-23T00:40:08.915Z,104000.84
2023-01-23T00:42:37.077Z,103985.88
2023-01-23T00:45:06.487Z,103967.47
2023-01-23T00:47:35.240Z,103980.56
2023-01-23T00:50:03.757Z,103976.88
2023-01-23T00:52:36.065Z,103985.47
2023-01-23T00:55:04.930Z,103978.22
2023-01-23T00:57:34.088Z,103968.31
2023-01-23T01:00:02.713Z,103967.59
2023-01-23T01:02:33.782Z,103959.91
2023-01-23T01:05:02.680Z,103960.84
2023-01-23T01:07:32.564Z,103959.03
2023-01-23T01:10:02.598Z,103952.31
2023-01-23T01:12:30.845Z,103957.13
2023-01-23T01:14:59.288Z,103959.31
2023-01-23T01:17:27.503Z,103967.63
2023-01-23T01:19:55.648Z,103977.72
2023-01-23T01:22:24.490Z,103996.34
2023-01-23T01:24:52.707Z,103977.41
2023-01-23T01:27:22.750Z,104000.50
2023-01-23T01:29:51.630Z,103999.72
2023-01-23T01:32:19.922Z,103995.81
2023-01-23T01:34:48.010Z,103984.19
2023-01-23T01:37:16.670Z,103985.25
2023-01-23T01:39:47.903Z,103998.72
2023-01-23T01:42:16.208Z,103989.72
2023-01-23T01:45:01.120Z,103982.66
2023-01-23T01:47:29.913Z,103996.94
2023-01-23T01:50:05.129Z,103985.13
2023-01-23T01:52:34.176Z,103977.47
2023-01-23T01:55:05.431Z,103998.75
2023-01-23T01:57:36.993Z,104013.72
2023-01-23T02:00:13.533Z,104008.31
2023-01-23T02:02:45.258Z,104007.84
2023-01-23T02:05:17.170Z,103937.25
2023-01-23T02:07:48.447Z,104003.72
2023-01-23T02:10:17.859Z,104002.69
2023-01-23T02:12:48.384Z,104010.19
2023-01-23T02:15:19.447Z,103981.09
2023-01-23T02:17:49.582Z,103980.63
2023-01-23T02:20:23.491Z,103988.66
2023-01-23T02:23:03.635Z,104018.00
2023-01-23T02:25:40.379Z,104022.78
2023-01-23T02:28:11.353Z,104032.75
2023-01-23T02:30:40.499Z,104036.13
2023-01-23T02:33:12.804Z,104027.03
2023-01-23T02:35:41.413Z,104017.66
2023-01-23T02:38:10.799Z,104020.81
2023-01-23T02:40:42.228Z,104002.63
2023-01-23T02:43:17.161Z,104019.78
2023-01-23T02:45:46.201Z,104007.06
2023-01-23T02:48:14.699Z,104024.44
2023-01-23T02:50:43.712Z,103994.09
2023-01-23T02:53:11.985Z,103992.19
2023-01-23T02:55:43.356Z,104013.72
2023-01-23T02:58:30.702Z,104009.34
2023-01-23T03:01:01.410Z,104004.19
2023-01-23T03:03:32.707Z,104003.13
2023-01-23T03:06:03.995Z,104000.09
2023-01-23T03:08:34.356Z,104000.50
2023-01-23T03:11:03.609Z,103978.94
2023-01-23T03:13:35.890Z,103995.56
2023-01-23T03:16:04.221Z,104001.25
2023-01-23T03:18:40.016Z,103992.75
2023-01-23T03:21:14.366Z,103988.72
2023-01-23T03:23:44.813Z,103993.63
2023-01-23T03:26:13.271Z,103991.84
2023-01-23T03:29:00.524Z,104005.56
2023-01-23T03:31:29.066Z,103987.81
2023-01-23T03:33:57.436Z,103983.66
2023-01-23T03:36:25.754Z,103969.41
2023-01-23T03:39:11.539Z,103983.38
2023-01-23T03:41:42.231Z,103983.69
2023-01-23T03:44:12.283Z,103988.06
2023-01-23T03:46:41.001Z,103973.84
2023-01-23T03:49:09.278Z,103969.53
2023-01-23T03:51:37.865Z,103960.47
2023-01-23T03:54:06.143Z,103987.81
2023-01-23T03:56:34.942Z,103980.56
2023-01-23T03:59:06.443Z,103992.09
2023-01-23T04:01:36.832Z,103969.63
2023-01-23T04:04:05.489Z,103993.53
2023-01-23T04:06:34.072Z,103958.75
2023-01-23T04:09:03.107Z,103971.47
2023-01-23T04:11:32.685Z,103974.22
2023-01-23T04:14:01.082Z,103985.25
2023-01-23T04:16:29.715Z,103968.91
2023-01-23T04:18:59.253Z,103973.84
2023-01-23T04:21:27.438Z,103915.97
2023-01-23T04:23:55.891Z,103975.91
2023-01-23T04:26:26.967Z,103981.09
2023-01-23T04:28:55.426Z,103971.28
2023-01-23T04:31:25.238Z,103926.56
2023-01-23T04:33:53.789Z,103946.66
2023-01-23T04:36:23.893Z,103955.81
2023-01-23T04:38:52.129Z,103962.47
2023-01-23T04:41:23.089Z,103967.78
2023-01-23T04:43:51.185Z,103958.06
2023-01-23T04:46:19.604Z,103960.53
2023-01-23T04:48:48.954Z,103966.63
2023-01-23T04:51:17.238Z,103963.34
2023-01-23T04:53:47.203Z,103949.50
2023-01-23T04:56:15.334Z,103957.78
2023-01-23T04:58:43.735Z,103961.69
2023-01-23T05:01:12.545Z,103964.16
2023-01-23T05:03:41.008Z,103969.84
2023-01-23T05:06:09.574Z,103959.63
2023-01-23T05:08:37.987Z,103977.50
2023-01-23T05:11:07.954Z,103977.75
2023-01-23T05:13:36.581Z,103973.88
2023-01-23T05:16:05.448Z,103971.75
2023-01-23T05:18:35.484Z,103966.59
2023-01-23T05:21:05.620Z,103968.41
2023-01-23T05:23:37.032Z,103962.16
2023-01-23T05:26:09.477Z,103968.56
2023-01-23T05:28:38.236Z,103959.22
2023-01-23T05:31:06.726Z,103971.06
2023-01-23T05:33:35.281Z,103964.75
2023-01-23T05:36:04.220Z,103963.47
2023-01-23T05:38:32.755Z,103960.44
2023-01-23T05:41:02.196Z,103965.41
2023-01-23T05:43:32.168Z,103968.19
2023-01-23T05:46:01.626Z,103964.81
2023-01-23T05:48:30.005Z,103986.84
2023-01-23T05:50:58.848Z,103992.28
2023-01-23T05:53:27.329Z,103989.38
2023-01-23T05:55:55.539Z,103993.34
2023-01-23T05:58:23.835Z,103990.22
2023-01-23T06:00:53.627Z,103996.03
2023-01-23T06:03:21.778Z,104001.38
2023-01-23T06:05:50.635Z,103999.13
2023-01-23T06:08:19.358Z,104000.69
2023-01-23T06:10:47.644Z,103999.63
2023-01-23T06:13:16.223Z,104000.41
2023-01-23T06:15:44.601Z,103991.81
2023-01-23T06:18:14.307Z,103990.28
2023-01-23T06:20:42.800Z,103970.66
2023-01-23T06:23:11.755Z,103998.88
2023-01-23T06:25:41.094Z,103972.91
2023-01-23T06:28:09.714Z,103981.44
2023-01-23T06:30:39.214Z,103985.59
2023-01-23T06:33:07.473Z,104021.59
2023-01-23T06:35:37.327Z,104020.84
2023-01-23T06:38:05.691Z,104026.03
2023-01-23T06:40:34.055Z,104008.78
2023-01-23T06:43:02.774Z,103969.84
2023-01-23T06:45:31.757Z,104017.03
2023-01-23T06:48:00.255Z,104023.69
2023-01-23T06:50:28.861Z,104029.22
2023-01-23T06:52:58.480Z,104012.56
2023-01-23T06:55:26.778Z,104010.19
2023-01-23T06:57:55.071Z,104019.97
2023-01-23T07:00:24.366Z,103995.81
2023-01-23T07:02:54.596Z,103980.66
2023-01-23T07:05:23.066Z,103980.91
2023-01-23T07:07:53.017Z,103982.75
2023-01-23T07:10:23.260Z,104008.44
2023-01-23T07:12:52.187Z,104009.72
2023-01-23T07:15:20.575Z,104016.19
2023-01-23T07:17:48.937Z,104019.25
2023-01-23T07:20:18.008Z,104012.41
2023-01-23T07:22:46.459Z,104037.75
2023-01-23T07:25:15.451Z,104041.22
2023-01-23T07:27:45.475Z,104040.06
2023-01-23T07:30:14.321Z,104032.56
2023-01-23T07:32:43.341Z,104044.78
2023-01-23T07:35:11.735Z,104027.97
2023-01-23T07:37:40.015Z,104040.66
2023-01-23T07:40:09.379Z,104032.81
2023-01-23T07:42:37.690Z,104032.50
2023-01-23T07:45:08.391Z,104038.41
2023-01-23T07:47:37.371Z,104054.81
2023-01-23T07:50:06.619Z,104046.97
2023-01-23T07:52:35.587Z,104047.84
2023-01-23T07:55:04.656Z,104044.66
2023-01-23T07:57:34.192Z,104033.53
2023-01-23T08:00:03.649Z,104052.16
2023-01-23T08:02:33.571Z,104061.22
2023-01-23T08:05:01.920Z,104045.78
2023-01-23T08:07:30.101Z,104057.16
2023-01-23T08:09:58.579Z,104072.34
2023-01-23T08:12:26.935Z,104067.84
2023-01-23T08:14:55.109Z,104063.50
2023-01-23T08:17:23.537Z,104064.69
2023-01-23T08:19:53.169Z,104064.59
2023-01-23T08:22:21.314Z,104063.50
2023-01-23T08:24:49.731Z,104058.97
2023-01-23T08:27:18.099Z,104046.47
2023-01-23T08:29:48.471Z,104065.94
2023-01-23T08:32:17.025Z,104061.47
2023-01-23T08:34:45.267Z,104056.03
2023-01-23T08:37:14.793Z,104079.38
2023-01-23T08:39:43.348Z,104065.81
2023-01-23T08:42:11.675Z,104025.91
2023-01-23T08:44:40.055Z,104064.72
2023-01-23T08:47:11.972Z,104064.22
2023-01-23T08:49:43.157Z,104067.38
2023-01-23T08:52:11.407Z,104051.78
2023-01-23T08:54:41.394Z,104064.72
2023-01-23T08:57:09.690Z,104077.16
2023-01-23T08:59:38.201Z,104068.97
2023-01-23T09:02:06.643Z,104081.38
2023-01-23T09:04:35.303Z,104076.69
2023-01-23T09:07:03.776Z,104076.78
2023-01-23T09:09:32.593Z,104074.94
2023-01-23T09:12:02.710Z,104069.22
2023-01-23T09:14:31.239Z,104075.75
2023-01-23T09:16:59.743Z,104067.63
2023-01-23T09:19:28.108Z,104078.03
2023-01-23T09:21:57.103Z,104078.72
2023-01-23T09:24:25.526Z,104063.75
2023-01-23T09:26:53.768Z,104078.03
2023-01-23T09:29:23.469Z,104076.63
2023-01-23T09:31:52.184Z,104081.50
2023-01-23T09:34:20.729Z,104082.38
2023-01-23T09:36:48.986Z,104076.81
2023-01-23T09:39:17.356Z,104091.19
2023-01-23T09:41:47.503Z,104084.44
2023-01-23T09:44:22.217Z,104069.41
2023-01-23T09:46:55.586Z,104072.28
2023-01-23T09:49:32.067Z,104053.66
2023-01-23T09:52:04.261Z,104070.22
2023-01-23T09:54:44.663Z,104045.38
2023-01-23T09:57:16.454Z,104059.94
2023-01-23T10:00:00.375Z,104051.84
2023-01-23T10:02:30.910Z,104051.38
2023-01-23T10:05:03.102Z,104056.81
2023-01-23T10:07:47.137Z,104028.66
2023-01-23T10:10:52.831Z,104067.78
2023-01-23T10:13:34.256Z,104058.41
2023-01-23T10:16:16.185Z,104058.06
2023-01-23T10:18:54.607Z,104059.78
2023-01-23T10:21:30.835Z,104046.72
2023-01-23T10:24:06.187Z,104061.28
2023-01-23T10:26:40.188Z,104058.41
2023-01-23T10:29:17.278Z,104020.38
2023-01-23T10:31:50.805Z,104055.41
2023-01-23T10:34:28.353Z,103985.50
2023-01-23T10:37:12.396Z,104070.56
2023-01-23T10:39:49.076Z,104064.72
2023-01-23T10:42:21.260Z,104052.59
2023-01-23T10:44:49.531Z,104061.78
2023-01-23T10:47:31.998Z,104071.53
2023-01-23T10:50:02.870Z,104068.25
2023-01-23T10:52:38.168Z,104067.84
2023-01-23T10:55:07.900Z,104060.81
2023-01-23T10:57:48.723Z,104062.44
2023-01-23T11:00:25.994Z,104032.28
2023-01-23T11:02:54.803Z,104055.47
2023-01-23T11:05:52.670Z,104046.25
2023-01-23T11:08:27.636Z,104007.44
2023-01-23T11:11:00.059Z,104019.03
2023-01-23T11:13:30.573Z,103980.72
2023-01-23T11:16:01.977Z,104043.28
2023-01-23T11:18:34.294Z,104053.94
2023-01-23T11:21:04.219Z,104036.50
2023-01-23T11:23:35.245Z,104045.56
2023-01-23T11:26:04.371Z,104021.97
2023-01-23T11:28:35.614Z,104036.28
2023-01-23T11:31:14.686Z,104030.16
2023-01-23T11:33:53.280Z,104029.91
2023-01-23T11:36:42.947Z,104032.53
2023-01-23T11:39:20.556Z,104003.66
2023-01-23T11:41:49.659Z,103980.53
2023-01-23T11:44:21.104Z,104012.94
2023-01-23T11:47:33.128Z,103998.88
2023-01-23T11:50:31.729Z,103990.59
2023-01-23T11:53:14.799Z,103975.88
2023-01-23T11:56:01.031Z,103980.75
2023-01-23T11:58:50.328Z,103938.06
2023-01-23T12:01:24.993Z,103988.00
2023-01-23T12:04:28.294Z,103975.53
2023-01-23T12:07:21.870Z,103960.94
2023-01-23T12:10:04.320Z,103943.72
2023-01-23T12:13:01.059Z,103953.53
2023-01-23T12:15:39.722Z,103951.03
2023-01-23T12:18:18.725Z,103948.22
2023-01-23T12:20:59.316Z,103944.50
2023-01-23T12:23:57.171Z,103950.84
2023-01-23T12:26:30.908Z,103954.22
2023-01-23T12:29:23.403Z,103952.88
2023-01-23T12:32:08.295Z,103942.22
2023-01-23T12:35:02.851Z,103946.97
2023-01-23T12:37:48.563Z,103950.25
2023-01-23T12:40:24.718Z,103947.41
2023-01-23T12:43:03.439Z,103959.88
2023-01-23T12:45:34.351Z,103948.22
2023-01-23T12:48:10.113Z,103918.44
2023-01-23T12:50:43.966Z,103882.72
2023-01-23T12:53:14.691Z,103960.34
2023-01-23T12:55:54.434Z,103958.28
2023-01-23T12:58:27.691Z,103960.81
2023-01-23T13:01:05.585Z,103943.41
2023-01-23T13:03:50.040Z,103963.78
2023-01-23T13:06:32.412Z,103961.28
2023-01-23T13:09:18.383Z,103971.34
2023-01-23T13:11:57.783Z,103961.47
2023-01-23T13:15:03.595Z,103960.59
2023-01-23T13:17:38.242Z,103948.72
2023-01-23T13:20:40.622Z,103951.09
2023-01-23T13:23:28.185Z,103941.09
2023-01-23T13:26:30.373Z,103946.78
2023-01-23T13:29:02.548Z,103955.81
2023-01-23T13:31:42.563Z,103949.28
2023-01-23T13:34:37.342Z,103968.75
2023-01-23T13:37:51.491Z,103961.28
2023-01-23T13:40:23.847Z,103964.78
2023-01-23T13:42:52.355Z,103956.84
2023-01-23T13:45:31.540Z,103958.75
2023-01-23T14:23:42.847Z,103954.25
2023-01-23T14:26:18.095Z,103960.81
2023-01-23T14:28:53.824Z,103937.03
2023-01-23T14:31:25.180Z,103959.47
2023-01-23T14:34:09.108Z,103940.88
2023-01-23T14:36:39.737Z,103943.41
2023-01-23T14:39:09.741Z,103947.00
2023-01-23T14:41:43.760Z,103905.09
2023-01-23T14:44:21.803Z,103924.56
2023-01-23T14:46:54.756Z,103951.75
2023-01-23T14:49:28.659Z,103967.63
2023-01-23T14:52:01.273Z,103958.09
2023-01-23T14:54:33.761Z,103949.75
2023-01-23T14:57:04.824Z,103944.31
2023-01-23T14:59:37.299Z,103947.03
2023-01-23T15:02:28.258Z,103950.50
2023-01-23T15:05:19.456Z,103941.31
2023-01-23T15:07:50.531Z,103936.59
2023-01-23T15:10:24.205Z,103947.44
2023-01-23T15:12:58.109Z,103962.19
2023-01-23T15:15:27.626Z,103972.84
2023-01-23T15:17:57.255Z,103979.25
2023-01-23T15:20:36.512Z,103988.13
2023-01-23T15:23:28.552Z,103984.88
2023-01-23T15:26:32.346Z,103936.75
2023-01-23T15:29:04.695Z,103982.75
2023-01-23T15:31:35.664Z,103991.25
2023-01-23T15:34:21.488Z,103988.72
2023-01-23T15:36:52.464Z,103971.00
2023-01-23T15:39:23.938Z,103988.63
2023-01-23T15:41:56.069Z,103988.28
2023-01-23T15:44:27.991Z,104006.75
2023-01-23T15:46:57.326Z,104003.41
2023-01-23T15:49:28.808Z,104005.06
2023-01-23T15:51:59.366Z,104006.75
2023-01-23T15:54:34.078Z,104014.66
2023-01-23T15:57:08.894Z,104011.53
2023-01-23T15:59:38.361Z,103980.41
2023-01-23T16:02:15.256Z,104033.13
2023-01-23T16:04:53.006Z,104025.75
2023-01-23T16:07:27.092Z,104013.75
2023-01-23T16:09:56.655Z,104014.22
2023-01-23T16:12:29.589Z,104007.69
2023-01-23T16:14:58.320Z,104015.84
2023-01-23T16:17:26.866Z,104014.03
2023-01-23T16:19:56.083Z,103990.72
2023-01-23T16:22:29.263Z,104008.38
2023-01-23T16:25:01.027Z,104007.25
2023-01-23T16:27:31.526Z,103969.88
2023-01-23T16:29:59.835Z,103997.94
2023-01-23T16:32:28.684Z,103990.00
2023-01-23T16:34:57.203Z,103986.09
2023-01-23T16:37:25.901Z,103987.22
2023-01-23T16:39:54.234Z,103996.34
2023-01-23T16:42:25.201Z,103992.06
2023-01-23T16:44:55.023Z,103996.34
2023-01-23T16:47:26.702Z,103984.34
2023-01-23T16:49:54.944Z,103991.03
2023-01-23T16:52:26.988Z,103999.78
2023-01-23T16:54:56.925Z,103993.41
2023-01-23T16:57:26.148Z,104004.97
2023-01-23T16:59:58.522Z,104002.91
2023-01-23T17:02:30.750Z,103998.13
2023-01-23T17:04:59.257Z,103991.59
2023-01-23T17:07:27.876Z,103983.91
2023-01-23T17:09:56.223Z,103995.00
2023-01-23T17:12:29.720Z,103978.94
2023-01-23T17:14:59.536Z,103966.69
2023-01-23T17:17:33.656Z,103964.00
2023-01-23T17:20:02.860Z,103978.69
2023-01-23T17:22:35.184Z,103990.66
2023-01-23T17:25:03.820Z,103990.47
2023-01-23T17:27:41.718Z,103987.53
2023-01-23T17:30:18.378Z,103988.72
2023-01-23T17:32:48.549Z,103995.69
2023-01-23T17:35:22.854Z,103993.59
2023-01-23T17:37:51.718Z,103985.25
2023-01-23T17:40:22.914Z,103986.97
2023-01-23T17:42:51.338Z,103999.97
2023-01-23T17:45:24.402Z,103993.78
2023-01-23T17:47:56.299Z,103986.84
2023-01-23T17:50:26.257Z,103983.72
2023-01-23T17:52:56.692Z,103982.78
2023-01-23T17:55:28.480Z,103982.56
2023-01-23T17:57:56.608Z,103980.06
2023-01-23T18:00:27.277Z,103969.22
2023-01-23T18:02:59.271Z,103973.50
2023-01-23T18:05:28.119Z,103970.13
2023-01-23T18:07:56.458Z,103972.38
2023-01-23T18:10:28.601Z,103966.03
2023-01-23T18:13:06.504Z,103961.28
2023-01-23T18:15:44.004Z,103952.34
2023-01-23T18:18:24.356Z,103967.88
2023-01-23T18:20:55.059Z,103957.22
2023-01-23T18:23:24.588Z,103957.22
2023-01-23T18:26:04.709Z,103965.34
2023-01-23T18:28:42.965Z,103954.91
2023-01-23T18:31:20.111Z,103957.44
2023-01-23T18:34:05.794Z,103946.78
2023-01-23T18:36:48.702Z,103947.44
2023-01-23T18:39:40.178Z,103945.22
2023-01-23T18:42:17.534Z,103945.88
2023-01-23T18:44:55.098Z,103932.88
2023-01-23T18:47:25.627Z,103934.78
2023-01-23T18:49:54.952Z,103945.88
2023-01-23T18:52:35.543Z,103937.03
2023-01-23T18:55:12.120Z,103949.03
2023-01-23T18:58:06.919Z,103946.09
2023-01-23T19:00:41.765Z,103945.41
2023-01-23T19:03:18.172Z,103937.03
2023-01-23T19:05:47.366Z,103941.09
2023-01-23T19:08:28.406Z,103935.22
2023-01-23T19:11:00.443Z,103928.09
2023-01-23T19:13:36.636Z,103929.34
2023-01-23T19:16:11.010Z,103941.56
2023-01-23T19:18:47.489Z,103937.03
2023-01-23T19:21:20.408Z,103950.72
2023-01-23T19:23:57.255Z,103939.09
2023-01-23T19:26:31.023Z,103940.78
2023-01-23T19:29:08.492Z,103930.03
2023-01-23T19:31:41.632Z,103932.53
2023-01-23T19:34:12.287Z,103919.50
2023-01-23T19:36:40.980Z,103922.09
2023-01-23T19:39:09.934Z,103920.00
2023-01-23T19:41:44.999Z,103920.72
2023-01-23T19:44:14.838Z,103912.34
2023-01-23T19:46:44.134Z,103906.44
2023-01-23T19:49:13.948Z,103908.94
2023-01-23T19:51:42.844Z,103905.31
2023-01-23T19:54:13.671Z,103897.16
2023-01-23T19:56:42.942Z,103892.84
2023-01-23T19:59:11.565Z,103911.19
2023-01-23T20:01:43.676Z,103886.31
2023-01-23T20:04:16.819Z,103911.31
2023-01-23T20:06:46.467Z,103871.91
2023-01-23T20:09:15.844Z,103912.44
2023-01-23T20:11:44.279Z,103908.00
2023-01-23T20:14:13.416Z,103905.16
2023-01-23T20:16:44.721Z,103902.38
2023-01-23T20:19:15.405Z,103910.19
2023-01-23T20:21:43.921Z,103917.53
2023-01-23T20:24:18.856Z,103900.13
2023-01-23T20:26:47.544Z,103885.13
2023-01-23T20:29:15.876Z,103906.88
2023-01-23T20:31:44.661Z,103909.47
2023-01-23T20:34:14.644Z,103921.38
2023-01-23T20:36:43.289Z,103917.91
2023-01-23T20:39:13.424Z,103924.13
2023-01-23T20:41:42.051Z,103917.53
2023-01-23T20:44:10.412Z,103908.94
2023-01-23T20:46:39.374Z,103923.09
2023-01-23T20:49:07.595Z,103917.69
2023-01-23T20:51:37.385Z,103922.41
2023-01-23T20:54:05.156Z,103897.72
2023-01-23T20:56:33.980Z,103904.63
2023-01-23T20:59:19.682Z,103914.59
2023-01-23T21:02:07.038Z,103904.25
2023-01-23T21:04:37.573Z,103895.66
2023-01-23T21:07:07.715Z,103910.94
2023-01-23T21:09:35.986Z,103903.91
2023-01-23T21:12:07.457Z,103901.41
2023-01-23T21:14:35.979Z,103857.72
2023-01-23T21:17:05.366Z,103890.06
2023-01-23T21:19:34.288Z,103886.31
2023-01-23T21:22:03.048Z,103872.16
2023-01-23T21:24:34.527Z,103850.00
2023-01-23T21:27:04.060Z,103882.53
2023-01-23T21:29:34.701Z,103881.97
2023-01-23T21:32:03.020Z,103878.00
2023-01-23T21:34:32.043Z,103874.16
2023-01-23T21:37:00.185Z,103882.75
2023-01-23T21:39:28.421Z,103879.06
2023-01-23T21:41:58.394Z,103874.16
2023-01-23T21:44:27.106Z,103870.50
2023-01-23T21:46:55.619Z,103875.31
2023-01-23T21:49:24.098Z,103883.53
2023-01-23T21:51:52.296Z,103884.56
2023-01-23T21:54:20.505Z,103876.16
2023-01-23T21:56:48.844Z,103865.28
2023-01-23T21:59:18.423Z,103878.31
2023-01-23T22:01:48.090Z,103878.50
2023-01-23T22:04:18.707Z,103873.97
2023-01-23T22:06:47.211Z,103880.28
2023-01-23T22:09:17.716Z,103868.25
2023-01-23T22:11:46.957Z,103861.25
2023-01-23T22:14:15.325Z,103845.16
2023-01-23T22:16:49.995Z,103853.84
2023-01-23T22:19:24.232Z,103827.53
2023-01-23T22:21:53.570Z,103853.97
2023-01-23T22:24:22.130Z,103853.47
2023-01-23T22:26:50.620Z,103844.00
2023-01-23T22:29:19.459Z,103846.47
2023-01-23T22:31:49.507Z,103805.28
2023-01-23T22:34:18.344Z,103843.25
2023-01-23T22:36:46.710Z,103865.94
2023-01-23T22:39:17.587Z,103863.19
2023-01-23T22:41:46.439Z,103866.72
2023-01-23T22:44:15.306Z,103858.91
2023-01-23T22:46:43.732Z,103867.75
2023-01-23T22:49:13.442Z,103849.69
2023-01-23T22:51:41.636Z,103818.31
2023-01-23T22:54:10.194Z,103824.00
2023-01-23T22:56:38.651Z,103839.44
2023-01-23T22:59:07.028Z,103822.63
2023-01-23T23:01:35.906Z,103809.97
2023-01-23T23:04:04.421Z,103813.72
2023-01-23T23:06:34.210Z,103813.13
2023-01-23T23:09:02.696Z,103821.56
2023-01-23T23:11:31.002Z,103814.34
2023-01-23T23:13:59.742Z,103821.09
2023-01-23T23:16:31.365Z,103813.56
2023-01-23T23:19:01.836Z,103809.59
2023-01-23T23:21:32.866Z,103826.78
2023-01-23T23:24:04.025Z,103835.19
2023-01-23T23:26:33.009Z,103834.91
2023-01-23T23:29:02.096Z,103820.19
2023-01-23T23:31:31.156Z,103822.00
2023-01-23T23:33:59.882Z,103825.81
2023-01-23T23:36:28.456Z,103831.03
2023-01-23T23:38:56.754Z,103830.88
2023-01-23T23:41:26.494Z,103816.63
2023-01-23T23:43:54.796Z,103818.66
2023-01-23T23:46:23.033Z,103806.03
2023-01-23T23:48:51.235Z,103806.03
2023-01-23T23:51:23.162Z,103790.63
2023-01-23T23:53:51.466Z,103812.81
2023-01-23T23:56:22.743Z,103802.59
2023-01-23T23:58:52.774Z,103788.34
